sensor_id;sensor_type;location;lat;lon;timestamp;temperature;humidity
3940;DHT22;1984;48.312;9.244;2023-08-17T00:00:54;18.20;99.90
3940;DHT22;1984;48.312;9.244;2023-08-17T00:03:20;18.30;99.90
3940;DHT22;1984;48.312;9.244;2023-08-17T00:05:46;18.30;99.90
3940;DHT22;1984;48.312;9.244;2023-08-17T00:08:11;18.30;99.90
3940;DHT22;1984;48.312;9.244;2023-08-17T00:10:37;18.30;99.90
3940;DHT22;1984;48.312;9.244;2023-08-17T00:13:04;18.20;99.90
3940;DHT22;1984;48.312;9.244;2023-08-17T00:15:29;18.10;99.90
3940;DHT22;1984;48.312;9.244;2023-08-17T00:17:55;18.00;99.90
3940;DHT22;1984;48.312;9.244;2023-08-17T00:20:20;18.00;99.90
3940;DHT22;1984;48.312;9.244;2023-08-17T00:22:46;17.90;99.90
3940;DHT22;1984;48.312;9.244;2023-08-17T00:25:11;18.00;99.90
3940;DHT22;1984;48.312;9.244;2023-08-17T00:27:37;18.00;99.90
3940;DHT22;1984;48.312;9.244;2023-08-17T00:30:03;18.00;99.90
3940;DHT22;1984;48.312;9.244;2023-08-17T00:32:29;17.90;99.90
3940;DHT22;1984;48.312;9.244;2023-08-17T00:34:54;17.90;99.90
3940;DHT22;1984;48.312;9.244;2023-08-17T00:37:19;17.80;99.90
3940;DHT22;1984;48.312;9.244;2023-08-17T00:39:45;17.90;99.90
3940;DHT22;1984;48.312;9.244;2023-08-17T00:42:10;17.90;99.90
3940;DHT22;1984;48.312;9.244;2023-08-17T00:44:36;17.90;99.90
3940;DHT22;1984;48.312;9.244;2023-08-17T00:47:02;17.80;99.90
3940;DHT22;1984;48.312;9.244;2023-08-17T00:49:27;17.90;99.90
3940;DHT22;1984;48.312;9.244;2023-08-17T00:51:53;17.90;99.90
3940;DHT22;1984;48.312;9.244;2023-08-17T00:54:24;17.90;99.90
3940;DHT22;1984;48.312;9.244;2023-08-17T00:56:51;17.90;99.90
3940;DHT22;1984;48.312;9.244;2023-08-17T00:59:17;17.80;99.90
3940;DHT22;1984;48.312;9.244;2023-08-17T01:01:43;17.80;99.90
3940;DHT22;1984;48.312;9.244;2023-08-17T01:04:09;17.70;99.90
3940;DHT22;1984;48.312;9.244;2023-08-17T01:06:34;17.60;99.90
3940;DHT22;1984;48.312;9.244;2023-08-17T01:09:00;17.60;99.90
3940;DHT22;1984;48.312;9.244;2023-08-17T01:11:56;17.50;99.90
3940;DHT22;1984;48.312;9.244;2023-08-17T01:14:50;17.40;99.90
3940;DHT22;1984;48.312;9.244;2023-08-17T01:17:29;17.40;99.90
3940;DHT22;1984;48.312;9.244;2023-08-17T01:19:58;17.40;99.90
3940;DHT22;1984;48.312;9.244;2023-08-17T01:22:24;17.40;99.90
3940;DHT22;1984;48.312;9.244;2023-08-17T01:24:55;17.40;99.90
3940;DHT22;1984;48.312;9.244;2023-08-17T01:27:23;17.40;99.90
3940;DHT22;1984;48.312;9.244;2023-08-17T01:29:49;17.40;99.90
3940;DHT22;1984;48.312;9.244;2023-08-17T01:32:27;17.30;99.90
3940;DHT22;1984;48.312;9.244;2023-08-17T01:34:58;17.30;99.90
3940;DHT22;1984;48.312;9.244;2023-08-17T01:37:28;17.30;99.90
3940;DHT22;1984;48.312;9.244;2023-08-17T01:39:57;17.20;99.90
3940;DHT22;1984;48.312;9.244;2023-08-17T01:42:24;17.20;99.90
3940;DHT22;1984;48.312;9.244;2023-08-17T01:44:49;17.20;99.90
3940;DHT22;1984;48.312;9.244;2023-08-17T01:47:15;17.20;99.90
3940;DHT22;1984;48.312;9.244;2023-08-17T01:49:41;17.20;99.90
3940;DHT22;1984;48.312;9.244;2023-08-17T01:52:06;17.20;99.90
3940;DHT22;1984;48.312;9.244;2023-08-17T01:54:32;17.20;99.90
3940;DHT22;1984;48.312;9.244;2023-08-17T01:56:57;17.20;99.90
3940;DHT22;1984;48.312;9.244;2023-08-17T01:59:23;17.10;99.90
3940;DHT22;1984;48.312;9.244;2023-08-17T02:01:48;17.10;99.90
3940;DHT22;1984;48.312;9.244;2023-08-17T02:04:15;17.00;99.90
3940;DHT22;1984;48.312;9.244;2023-08-17T02:06:40;17.10;99.90
3940;DHT22;1984;48.312;9.244;2023-08-17T02:09:06;17.00;99.90
3940;DHT22;1984;48.312;9.244;2023-08-17T02:11:31;17.00;99.90
3940;DHT22;1984;48.312;9.244;2023-08-17T02:13:57;17.00;99.90
3940;DHT22;1984;48.312;9.244;2023-08-17T02:16:22;17.00;99.90
3940;DHT22;1984;48.312;9.244;2023-08-17T02:18:48;17.00;99.90
3940;DHT22;1984;48.312;9.244;2023-08-17T02:21:13;17.00;99.90
3940;DHT22;1984;48.312;9.244;2023-08-17T02:23:39;17.00;99.90
3940;DHT22;1984;48.312;9.244;2023-08-17T02:26:04;16.90;99.90
3940;DHT22;1984;48.312;9.244;2023-08-17T02:28:30;16.80;99.90
3940;DHT22;1984;48.312;9.244;2023-08-17T02:30:56;16.80;99.90
3940;DHT22;1984;48.312;9.244;2023-08-17T02:33:22;16.70;99.90
3940;DHT22;1984;48.312;9.244;2023-08-17T02:35:51;16.70;99.90
3940;DHT22;1984;48.312;9.244;2023-08-17T02:38:17;16.80;99.90
3940;DHT22;1984;48.312;9.244;2023-08-17T02:40:43;16.80;99.90
3940;DHT22;1984;48.312;9.244;2023-08-17T02:43:08;16.80;99.90
3940;DHT22;1984;48.312;9.244;2023-08-17T02:45:34;16.80;99.90
3940;DHT22;1984;48.312;9.244;2023-08-17T02:48:00;16.80;99.90
3940;DHT22;1984;48.312;9.244;2023-08-17T02:50:26;16.80;99.90
3940;DHT22;1984;48.312;9.244;2023-08-17T02:52:51;16.80;99.90
3940;DHT22;1984;48.312;9.244;2023-08-17T02:55:17;16.70;99.90
3940;DHT22;1984;48.312;9.244;2023-08-17T02:57:42;16.60;99.90
3940;DHT22;1984;48.312;9.244;2023-08-17T03:00:08;16.50;99.90
3940;DHT22;1984;48.312;9.244;2023-08-17T03:02:34;16.50;99.90
3940;DHT22;1984;48.312;9.244;2023-08-17T03:04:59;16.50;99.90
3940;DHT22;1984;48.312;9.244;2023-08-17T03:07:25;16.50;99.90
3940;DHT22;1984;48.312;9.244;2023-08-17T03:09:50;16.50;99.90
3940;DHT22;1984;48.312;9.244;2023-08-17T03:12:16;16.40;99.90
3940;DHT22;1984;48.312;9.244;2023-08-17T03:14:42;16.40;99.90
3940;DHT22;1984;48.312;9.244;2023-08-17T03:17:07;16.40;99.90
3940;DHT22;1984;48.312;9.244;2023-08-17T03:19:33;16.40;99.90
3940;DHT22;1984;48.312;9.244;2023-08-17T03:21:58;16.30;99.90
3940;DHT22;1984;48.312;9.244;2023-08-17T03:24:24;16.30;99.90
3940;DHT22;1984;48.312;9.244;2023-08-17T03:26:49;16.20;99.90
3940;DHT22;1984;48.312;9.244;2023-08-17T03:29:15;16.20;99.90
3940;DHT22;1984;48.312;9.244;2023-08-17T03:31:40;16.20;99.90
3940;DHT22;1984;48.312;9.244;2023-08-17T03:34:06;16.20;99.90
3940;DHT22;1984;48.312;9.244;2023-08-17T03:36:31;16.20;99.90
3940;DHT22;1984;48.312;9.244;2023-08-17T03:38:57;16.20;99.90
3940;DHT22;1984;48.312;9.244;2023-08-17T03:41:22;16.30;99.90
3940;DHT22;1984;48.312;9.244;2023-08-17T03:43:51;16.30;99.90
3940;DHT22;1984;48.312;9.244;2023-08-17T03:46:16;16.30;99.90
3940;DHT22;1984;48.312;9.244;2023-08-17T03:48:42;16.30;99.90
3940;DHT22;1984;48.312;9.244;2023-08-17T03:51:08;16.30;99.90
3940;DHT22;1984;48.312;9.244;2023-08-17T03:53:34;16.30;99.90
3940;DHT22;1984;48.312;9.244;2023-08-17T03:55:59;16.40;99.90
3940;DHT22;1984;48.312;9.244;2023-08-17T03:58:25;16.30;99.90
3940;DHT22;1984;48.312;9.244;2023-08-17T04:00:58;16.20;99.90
3940;DHT22;1984;48.312;9.244;2023-08-17T04:03:24;16.10;99.90
3940;DHT22;1984;48.312;9.244;2023-08-17T04:05:49;16.10;99.90
3940;DHT22;1984;48.312;9.244;2023-08-17T04:08:15;16.10;99.90
3940;DHT22;1984;48.312;9.244;2023-08-17T04:10:40;16.10;99.90
3940;DHT22;1984;48.312;9.244;2023-08-17T04:13:06;16.10;99.90
3940;DHT22;1984;48.312;9.244;2023-08-17T04:15:31;16.10;99.90
3940;DHT22;1984;48.312;9.244;2023-08-17T04:17:57;16.20;99.90
3940;DHT22;1984;48.312;9.244;2023-08-17T04:20:22;16.20;99.90
3940;DHT22;1984;48.312;9.244;2023-08-17T04:22:48;16.20;99.90
3940;DHT22;1984;48.312;9.244;2023-08-17T04:25:14;16.30;99.90
3940;DHT22;1984;48.312;9.244;2023-08-17T04:27:39;16.30;99.90
3940;DHT22;1984;48.312;9.244;2023-08-17T04:30:05;16.40;99.90
3940;DHT22;1984;48.312;9.244;2023-08-17T04:32:31;16.40;99.90
3940;DHT22;1984;48.312;9.244;2023-08-17T04:34:57;16.40;99.90
3940;DHT22;1984;48.312;9.244;2023-08-17T04:37:22;16.30;99.90
3940;DHT22;1984;48.312;9.244;2023-08-17T04:39:48;16.40;99.90
3940;DHT22;1984;48.312;9.244;2023-08-17T04:42:14;16.40;99.90
3940;DHT22;1984;48.312;9.244;2023-08-17T04:44:40;16.40;99.90
3940;DHT22;1984;48.312;9.244;2023-08-17T04:47:06;16.40;99.90
3940;DHT22;1984;48.312;9.244;2023-08-17T04:49:31;16.30;99.90
3940;DHT22;1984;48.312;9.244;2023-08-17T04:51:57;16.30;99.90
3940;DHT22;1984;48.312;9.244;2023-08-17T04:54:22;16.30;99.90
3940;DHT22;1984;48.312;9.244;2023-08-17T04:56:48;16.30;99.90
3940;DHT22;1984;48.312;9.244;2023-08-17T04:59:13;16.30;99.90
3940;DHT22;1984;48.312;9.244;2023-08-17T05:01:39;16.30;99.90
3940;DHT22;1984;48.312;9.244;2023-08-17T05:04:05;16.40;99.90
3940;DHT22;1984;48.312;9.244;2023-08-17T05:06:31;16.50;99.90
3940;DHT22;1984;48.312;9.244;2023-08-17T05:08:56;16.60;99.90
3940;DHT22;1984;48.312;9.244;2023-08-17T05:11:22;16.70;99.90
3940;DHT22;1984;48.312;9.244;2023-08-17T05:13:48;16.80;99.90
3940;DHT22;1984;48.312;9.244;2023-08-17T05:16:13;16.90;99.90
3940;DHT22;1984;48.312;9.244;2023-08-17T05:18:39;17.00;99.90
3940;DHT22;1984;48.312;9.244;2023-08-17T05:21:04;17.00;99.90
3940;DHT22;1984;48.312;9.244;2023-08-17T05:23:30;17.10;99.90
3940;DHT22;1984;48.312;9.244;2023-08-17T05:25:55;17.20;99.90
3940;DHT22;1984;48.312;9.244;2023-08-17T05:28:21;17.40;99.90
3940;DHT22;1984;48.312;9.244;2023-08-17T05:30:48;17.40;99.90
3940;DHT22;1984;48.312;9.244;2023-08-17T05:33:14;17.40;99.90
3940;DHT22;1984;48.312;9.244;2023-08-17T05:35:39;17.40;99.90
3940;DHT22;1984;48.312;9.244;2023-08-17T05:38:05;17.30;99.90
3940;DHT22;1984;48.312;9.244;2023-08-17T05:40:31;17.40;99.90
3940;DHT22;1984;48.312;9.244;2023-08-17T05:42:57;17.40;99.90
3940;DHT22;1984;48.312;9.244;2023-08-17T05:45:22;17.50;99.90
3940;DHT22;1984;48.312;9.244;2023-08-17T05:47:48;17.70;99.90
3940;DHT22;1984;48.312;9.244;2023-08-17T05:50:13;17.80;99.90
3940;DHT22;1984;48.312;9.244;2023-08-17T05:52:40;18.10;99.90
3940;DHT22;1984;48.312;9.244;2023-08-17T05:55:06;18.20;99.90
3940;DHT22;1984;48.312;9.244;2023-08-17T05:57:32;18.20;99.90
3940;DHT22;1984;48.312;9.244;2023-08-17T05:59:57;18.20;99.90
3940;DHT22;1984;48.312;9.244;2023-08-17T06:02:23;18.20;99.90
3940;DHT22;1984;48.312;9.244;2023-08-17T06:04:48;18.30;99.90
3940;DHT22;1984;48.312;9.244;2023-08-17T06:07:14;18.40;99.90
3940;DHT22;1984;48.312;9.244;2023-08-17T06:09:40;18.60;99.90
3940;DHT22;1984;48.312;9.244;2023-08-17T06:12:05;18.80;99.90
3940;DHT22;1984;48.312;9.244;2023-08-17T06:14:32;19.00;99.90
3940;DHT22;1984;48.312;9.244;2023-08-17T06:16:58;19.10;99.90
3940;DHT22;1984;48.312;9.244;2023-08-17T06:19:23;19.20;99.90
3940;DHT22;1984;48.312;9.244;2023-08-17T06:21:49;19.30;99.90
3940;DHT22;1984;48.312;9.244;2023-08-17T06:24:14;19.30;99.90
3940;DHT22;1984;48.312;9.244;2023-08-17T06:26:40;19.40;99.90
3940;DHT22;1984;48.312;9.244;2023-08-17T06:29:06;19.40;99.90
3940;DHT22;1984;48.312;9.244;2023-08-17T06:31:32;19.40;99.90
3940;DHT22;1984;48.312;9.244;2023-08-17T06:33:58;19.50;99.90
3940;DHT22;1984;48.312;9.244;2023-08-17T06:36:23;19.60;99.90
3940;DHT22;1984;48.312;9.244;2023-08-17T06:38:49;19.70;99.90
3940;DHT22;1984;48.312;9.244;2023-08-17T06:41:15;19.70;99.90
3940;DHT22;1984;48.312;9.244;2023-08-17T06:43:41;20.00;99.90
3940;DHT22;1984;48.312;9.244;2023-08-17T06:46:06;20.20;99.90
3940;DHT22;1984;48.312;9.244;2023-08-17T06:48:32;20.50;99.90
3940;DHT22;1984;48.312;9.244;2023-08-17T06:50:57;20.70;99.90
3940;DHT22;1984;48.312;9.244;2023-08-17T06:53:23;21.00;99.90
3940;DHT22;1984;48.312;9.244;2023-08-17T06:55:48;21.30;99.90
3940;DHT22;1984;48.312;9.244;2023-08-17T06:58:14;21.70;99.90
3940;DHT22;1984;48.312;9.244;2023-08-17T07:00:39;22.10;99.90
3940;DHT22;1984;48.312;9.244;2023-08-17T07:03:06;22.70;99.90
3940;DHT22;1984;48.312;9.244;2023-08-17T07:05:32;23.30;99.90
3940;DHT22;1984;48.312;9.244;2023-08-17T07:07:58;23.80;99.90
3940;DHT22;1984;48.312;9.244;2023-08-17T07:10:25;24.30;99.90
3940;DHT22;1984;48.312;9.244;2023-08-17T07:12:50;24.70;99.90
3940;DHT22;1984;48.312;9.244;2023-08-17T07:15:16;24.90;99.90
3940;DHT22;1984;48.312;9.244;2023-08-17T07:17:41;25.10;99.90
3940;DHT22;1984;48.312;9.244;2023-08-17T07:20:07;25.60;99.90
3940;DHT22;1984;48.312;9.244;2023-08-17T07:22:33;26.10;99.90
3940;DHT22;1984;48.312;9.244;2023-08-17T07:24:59;26.50;99.90
3940;DHT22;1984;48.312;9.244;2023-08-17T07:27:25;27.00;99.90
3940;DHT22;1984;48.312;9.244;2023-08-17T07:29:50;27.70;99.90
3940;DHT22;1984;48.312;9.244;2023-08-17T07:32:16;28.10;99.90
3940;DHT22;1984;48.312;9.244;2023-08-17T07:34:41;28.30;99.90
3940;DHT22;1984;48.312;9.244;2023-08-17T07:37:07;28.50;99.90
3940;DHT22;1984;48.312;9.244;2023-08-17T07:39:33;28.60;99.90
3940;DHT22;1984;48.312;9.244;2023-08-17T07:41:59;28.50;99.90
3940;DHT22;1984;48.312;9.244;2023-08-17T07:44:24;28.50;99.90
3940;DHT22;1984;48.312;9.244;2023-08-17T07:46:50;28.50;99.90
3940;DHT22;1984;48.312;9.244;2023-08-17T07:49:15;28.50;99.90
3940;DHT22;1984;48.312;9.244;2023-08-17T07:51:41;28.30;99.90
3940;DHT22;1984;48.312;9.244;2023-08-17T07:54:07;28.10;99.90
3940;DHT22;1984;48.312;9.244;2023-08-17T07:56:32;28.10;99.90
3940;DHT22;1984;48.312;9.244;2023-08-17T07:58:58;28.40;99.90
3940;DHT22;1984;48.312;9.244;2023-08-17T08:01:23;29.40;99.90
3940;DHT22;1984;48.312;9.244;2023-08-17T08:03:49;30.30;99.90
3940;DHT22;1984;48.312;9.244;2023-08-17T08:06:15;30.50;99.90
3940;DHT22;1984;48.312;9.244;2023-08-17T08:08:41;30.90;99.90
3940;DHT22;1984;48.312;9.244;2023-08-17T08:11:06;31.20;99.90
3940;DHT22;1984;48.312;9.244;2023-08-17T08:13:32;31.60;99.90
3940;DHT22;1984;48.312;9.244;2023-08-17T08:16:01;31.80;99.90
3940;DHT22;1984;48.312;9.244;2023-08-17T08:18:26;32.30;99.90
3940;DHT22;1984;48.312;9.244;2023-08-17T08:20:52;32.60;99.90
3940;DHT22;1984;48.312;9.244;2023-08-17T08:23:17;32.70;99.90
3940;DHT22;1984;48.312;9.244;2023-08-17T08:25:43;33.00;99.90
3940;DHT22;1984;48.312;9.244;2023-08-17T08:28:09;33.50;99.90
3940;DHT22;1984;48.312;9.244;2023-08-17T08:30:34;34.30;99.90
3940;DHT22;1984;48.312;9.244;2023-08-17T08:33:01;34.80;99.90
3940;DHT22;1984;48.312;9.244;2023-08-17T08:35:28;35.40;99.00
3940;DHT22;1984;48.312;9.244;2023-08-17T08:37:53;35.80;98.10
3940;DHT22;1984;48.312;9.244;2023-08-17T08:40:26;35.80;96.40
3940;DHT22;1984;48.312;9.244;2023-08-17T08:42:52;35.80;96.60
3940;DHT22;1984;48.312;9.244;2023-08-17T08:45:17;35.80;95.60
3940;DHT22;1984;48.312;9.244;2023-08-17T08:47:44;35.70;96.00
3940;DHT22;1984;48.312;9.244;2023-08-17T08:50:16;35.60;95.30
3940;DHT22;1984;48.312;9.244;2023-08-17T08:52:47;35.60;95.70
3940;DHT22;1984;48.312;9.244;2023-08-17T08:55:19;35.60;95.80
3940;DHT22;1984;48.312;9.244;2023-08-17T08:57:46;35.70;94.70
3940;DHT22;1984;48.312;9.244;2023-08-17T09:00:12;36.40;95.10
3940;DHT22;1984;48.312;9.244;2023-08-17T09:02:38;37.00;94.80
3940;DHT22;1984;48.312;9.244;2023-08-17T09:05:06;37.00;94.30
3940;DHT22;1984;48.312;9.244;2023-08-17T09:07:33;37.20;93.70
3940;DHT22;1984;48.312;9.244;2023-08-17T09:09:59;37.40;92.80
3940;DHT22;1984;48.312;9.244;2023-08-17T09:12:25;37.20;92.70
3940;DHT22;1984;48.312;9.244;2023-08-17T09:14:50;36.80;92.80
3940;DHT22;1984;48.312;9.244;2023-08-17T09:17:25;37.00;93.60
3940;DHT22;1984;48.312;9.244;2023-08-17T09:19:51;37.20;92.40
3940;DHT22;1984;48.312;9.244;2023-08-17T09:22:32;38.00;91.30
3940;DHT22;1984;48.312;9.244;2023-08-17T09:25:01;38.50;90.30
3940;DHT22;1984;48.312;9.244;2023-08-17T09:27:27;38.60;89.40
3940;DHT22;1984;48.312;9.244;2023-08-17T09:29:53;38.80;87.70
3940;DHT22;1984;48.312;9.244;2023-08-17T09:32:30;38.90;87.90
3940;DHT22;1984;48.312;9.244;2023-08-17T09:34:55;39.20;84.70
3940;DHT22;1984;48.312;9.244;2023-08-17T09:37:21;39.60;84.60
3940;DHT22;1984;48.312;9.244;2023-08-17T09:39:47;40.00;84.50
3940;DHT22;1984;48.312;9.244;2023-08-17T09:42:14;40.60;82.20
3940;DHT22;1984;48.312;9.244;2023-08-17T09:44:42;41.00;82.10
3940;DHT22;1984;48.312;9.244;2023-08-17T09:47:07;41.30;79.90
3940;DHT22;1984;48.312;9.244;2023-08-17T09:49:33;41.10;79.30
3940;DHT22;1984;48.312;9.244;2023-08-17T09:52:02;40.90;80.20
3940;DHT22;1984;48.312;9.244;2023-08-17T09:54:30;40.80;79.10
3940;DHT22;1984;48.312;9.244;2023-08-17T09:56:57;40.50;78.30
3940;DHT22;1984;48.312;9.244;2023-08-17T09:59:23;40.30;78.00
3940;DHT22;1984;48.312;9.244;2023-08-17T10:01:50;40.30;78.40
3940;DHT22;1984;48.312;9.244;2023-08-17T10:04:21;40.00;77.10
3940;DHT22;1984;48.312;9.244;2023-08-17T10:06:51;39.90;77.30
3940;DHT22;1984;48.312;9.244;2023-08-17T10:09:23;40.20;78.40
3940;DHT22;1984;48.312;9.244;2023-08-17T10:11:52;40.50;78.10
3940;DHT22;1984;48.312;9.244;2023-08-17T10:14:26;40.00;77.30
3940;DHT22;1984;48.312;9.244;2023-08-17T10:17:01;39.30;79.10
3940;DHT22;1984;48.312;9.244;2023-08-17T10:22:20;38.80;79.40
3940;DHT22;1984;48.312;9.244;2023-08-17T10:24:49;39.20;79.80
3940;DHT22;1984;48.312;9.244;2023-08-17T10:27:17;39.00;77.90
3940;DHT22;1984;48.312;9.244;2023-08-17T10:29:43;38.80;78.40
3940;DHT22;1984;48.312;9.244;2023-08-17T10:32:10;39.00;79.10
3940;DHT22;1984;48.312;9.244;2023-08-17T10:34:37;39.30;80.70
3940;DHT22;1984;48.312;9.244;2023-08-17T10:37:04;39.40;76.70
3940;DHT22;1984;48.312;9.244;2023-08-17T10:39:30;40.20;79.70
3940;DHT22;1984;48.312;9.244;2023-08-17T10:41:57;40.50;74.00
3940;DHT22;1984;48.312;9.244;2023-08-17T10:44:45;39.90;76.40
3940;DHT22;1984;48.312;9.244;2023-08-17T10:47:31;38.90;80.70
3940;DHT22;1984;48.312;9.244;2023-08-17T10:50:23;38.90;77.50
3940;DHT22;1984;48.312;9.244;2023-08-17T10:52:50;38.40;78.60
3940;DHT22;1984;48.312;9.244;2023-08-17T10:55:16;37.10;79.10
3940;DHT22;1984;48.312;9.244;2023-08-17T10:57:44;36.50;83.10
3940;DHT22;1984;48.312;9.244;2023-08-17T11:00:13;35.90;83.20
3940;DHT22;1984;48.312;9.244;2023-08-17T11:02:40;35.90;85.90
3940;DHT22;1984;48.312;9.244;2023-08-17T11:05:06;36.10;84.50
3940;DHT22;1984;48.312;9.244;2023-08-17T11:07:42;36.40;84.40
3940;DHT22;1984;48.312;9.244;2023-08-17T11:12:45;36.20;84.30
3940;DHT22;1984;48.312;9.244;2023-08-17T11:15:11;36.00;84.20
3940;DHT22;1984;48.312;9.244;2023-08-17T11:17:36;35.90;83.90
3940;DHT22;1984;48.312;9.244;2023-08-17T11:20:04;36.10;84.60
3940;DHT22;1984;48.312;9.244;2023-08-17T11:22:30;36.20;81.00
3940;DHT22;1984;48.312;9.244;2023-08-17T11:24:55;36.10;81.60
3940;DHT22;1984;48.312;9.244;2023-08-17T11:27:21;36.00;83.40
3940;DHT22;1984;48.312;9.244;2023-08-17T11:29:47;35.70;79.00
3940;DHT22;1984;48.312;9.244;2023-08-17T11:32:16;35.20;79.50
3940;DHT22;1984;48.312;9.244;2023-08-17T11:34:41;34.60;85.10
3940;DHT22;1984;48.312;9.244;2023-08-17T11:37:07;33.90;86.40
3940;DHT22;1984;48.312;9.244;2023-08-17T11:39:34;33.30;87.60
3940;DHT22;1984;48.312;9.244;2023-08-17T11:42:00;32.80;92.80
3940;DHT22;1984;48.312;9.244;2023-08-17T11:44:25;32.00;94.70
3940;DHT22;1984;48.312;9.244;2023-08-17T11:46:51;31.10;98.90
3940;DHT22;1984;48.312;9.244;2023-08-17T11:49:17;29.50;99.90
3940;DHT22;1984;48.312;9.244;2023-08-17T11:51:43;27.90;98.30
3940;DHT22;1984;48.312;9.244;2023-08-17T11:54:08;26.00;99.90
3940;DHT22;1984;48.312;9.244;2023-08-17T11:56:34;24.70;99.80
3940;DHT22;1984;48.312;9.244;2023-08-17T11:59:11;23.90;99.90
3940;DHT22;1984;48.312;9.244;2023-08-17T12:01:44;23.50;99.90
3940;DHT22;1984;48.312;9.244;2023-08-17T12:04:09;23.20;99.90
3940;DHT22;1984;48.312;9.244;2023-08-17T12:06:37;22.90;99.90
3940;DHT22;1984;48.312;9.244;2023-08-17T12:09:05;22.70;99.90
3940;DHT22;1984;48.312;9.244;2023-08-17T12:11:31;22.70;99.90
3940;DHT22;1984;48.312;9.244;2023-08-17T12:13:56;22.50;99.90
3940;DHT22;1984;48.312;9.244;2023-08-17T12:16:23;22.00;99.90
3940;DHT22;1984;48.312;9.244;2023-08-17T12:18:49;21.90;99.90
3940;DHT22;1984;48.312;9.244;2023-08-17T12:21:15;21.90;99.90
3940;DHT22;1984;48.312;9.244;2023-08-17T12:23:41;21.80;99.90
3940;DHT22;1984;48.312;9.244;2023-08-17T12:26:08;21.70;99.90
3940;DHT22;1984;48.312;9.244;2023-08-17T12:28:33;21.50;99.90
3940;DHT22;1984;48.312;9.244;2023-08-17T12:31:00;21.40;99.90
3940;DHT22;1984;48.312;9.244;2023-08-17T12:33:26;21.30;99.90
3940;DHT22;1984;48.312;9.244;2023-08-17T12:35:52;21.30;99.90
3940;DHT22;1984;48.312;9.244;2023-08-17T12:38:17;21.20;99.90
3940;DHT22;1984;48.312;9.244;2023-08-17T12:40:43;21.10;99.90
3940;DHT22;1984;48.312;9.244;2023-08-17T12:43:09;21.20;99.90
3940;DHT22;1984;48.312;9.244;2023-08-17T12:45:34;21.30;99.90
3940;DHT22;1984;48.312;9.244;2023-08-17T12:48:00;21.30;99.90
3940;DHT22;1984;48.312;9.244;2023-08-17T12:50:25;21.20;99.90
3940;DHT22;1984;48.312;9.244;2023-08-17T12:52:51;21.20;99.90
3940;DHT22;1984;48.312;9.244;2023-08-17T12:55:16;21.20;99.90
3940;DHT22;1984;48.312;9.244;2023-08-17T12:57:42;21.20;99.90
3940;DHT22;1984;48.312;9.244;2023-08-17T13:00:08;21.20;99.90
3940;DHT22;1984;48.312;9.244;2023-08-17T13:02:34;21.30;99.90
3940;DHT22;1984;48.312;9.244;2023-08-17T13:05:00;21.20;99.90
3940;DHT22;1984;48.312;9.244;2023-08-17T13:07:25;21.20;99.90
3940;DHT22;1984;48.312;9.244;2023-08-17T13:09:51;21.20;99.90
3940;DHT22;1984;48.312;9.244;2023-08-17T13:12:16;21.10;99.90
3940;DHT22;1984;48.312;9.244;2023-08-17T13:14:42;21.10;99.90
3940;DHT22;1984;48.312;9.244;2023-08-17T13:17:07;21.10;99.90
3940;DHT22;1984;48.312;9.244;2023-08-17T13:19:33;21.10;99.90
3940;DHT22;1984;48.312;9.244;2023-08-17T13:21:58;21.00;99.90
3940;DHT22;1984;48.312;9.244;2023-08-17T13:24:24;20.90;99.90
3940;DHT22;1984;48.312;9.244;2023-08-17T13:26:50;20.80;99.90
3940;DHT22;1984;48.312;9.244;2023-08-17T13:29:18;20.70;99.90
3940;DHT22;1984;48.312;9.244;2023-08-17T13:31:46;20.70;99.90
3940;DHT22;1984;48.312;9.244;2023-08-17T13:34:11;20.60;99.90
3940;DHT22;1984;48.312;9.244;2023-08-17T13:36:36;20.70;99.90
3940;DHT22;1984;48.312;9.244;2023-08-17T13:39:02;20.70;99.90
3940;DHT22;1984;48.312;9.244;2023-08-17T13:41:28;20.80;99.90
3940;DHT22;1984;48.312;9.244;2023-08-17T13:43:53;20.80;99.90
3940;DHT22;1984;48.312;9.244;2023-08-17T13:46:19;20.90;99.90
3940;DHT22;1984;48.312;9.244;2023-08-17T13:48:44;21.00;99.90
3940;DHT22;1984;48.312;9.244;2023-08-17T13:51:10;21.10;99.90
3940;DHT22;1984;48.312;9.244;2023-08-17T13:53:36;21.30;99.90
3940;DHT22;1984;48.312;9.244;2023-08-17T13:56:02;21.40;99.90
3940;DHT22;1984;48.312;9.244;2023-08-17T13:58:28;21.40;99.90
3940;DHT22;1984;48.312;9.244;2023-08-17T14:00:53;21.50;99.90
3940;DHT22;1984;48.312;9.244;2023-08-17T14:03:19;21.60;99.90
3940;DHT22;1984;48.312;9.244;2023-08-17T14:05:44;21.80;99.90
3940;DHT22;1984;48.312;9.244;2023-08-17T14:08:10;22.00;99.90
3940;DHT22;1984;48.312;9.244;2023-08-17T14:10:36;22.10;99.90
3940;DHT22;1984;48.312;9.244;2023-08-17T14:13:02;22.10;99.90
3940;DHT22;1984;48.312;9.244;2023-08-17T14:15:28;22.10;99.90
3940;DHT22;1984;48.312;9.244;2023-08-17T14:17:54;22.20;99.90
3940;DHT22;1984;48.312;9.244;2023-08-17T14:20:19;22.30;99.90
3940;DHT22;1984;48.312;9.244;2023-08-17T14:22:45;22.50;99.90
3940;DHT22;1984;48.312;9.244;2023-08-17T14:25:10;22.60;99.90
3940;DHT22;1984;48.312;9.244;2023-08-17T14:27:36;22.60;99.90
3940;DHT22;1984;48.312;9.244;2023-08-17T14:30:01;22.50;99.90
3940;DHT22;1984;48.312;9.244;2023-08-17T14:32:28;22.50;99.90
3940;DHT22;1984;48.312;9.244;2023-08-17T14:34:54;22.50;99.90
3940;DHT22;1984;48.312;9.244;2023-08-17T14:37:19;22.70;99.90
3940;DHT22;1984;48.312;9.244;2023-08-17T14:39:45;22.90;99.90
3940;DHT22;1984;48.312;9.244;2023-08-17T14:42:12;23.00;99.90
3940;DHT22;1984;48.312;9.244;2023-08-17T14:44:37;23.20;99.90
3940;DHT22;1984;48.312;9.244;2023-08-17T14:47:03;23.40;99.90
3940;DHT22;1984;48.312;9.244;2023-08-17T14:49:29;23.60;99.90
3940;DHT22;1984;48.312;9.244;2023-08-17T14:51:54;23.70;99.90
3940;DHT22;1984;48.312;9.244;2023-08-17T14:54:20;23.80;99.90
3940;DHT22;1984;48.312;9.244;2023-08-17T14:56:45;23.90;99.90
3940;DHT22;1984;48.312;9.244;2023-08-17T14:59:11;24.00;99.90
3940;DHT22;1984;48.312;9.244;2023-08-17T15:01:37;24.20;99.90
3940;DHT22;1984;48.312;9.244;2023-08-17T15:04:02;24.40;99.90
3940;DHT22;1984;48.312;9.244;2023-08-17T15:06:28;24.60;99.90
3940;DHT22;1984;48.312;9.244;2023-08-17T15:08:54;24.70;99.90
3940;DHT22;1984;48.312;9.244;2023-08-17T15:11:20;24.80;99.90
3940;DHT22;1984;48.312;9.244;2023-08-17T15:13:45;24.90;99.90
3940;DHT22;1984;48.312;9.244;2023-08-17T15:16:11;25.00;99.90
3940;DHT22;1984;48.312;9.244;2023-08-17T15:18:38;25.10;99.90
3940;DHT22;1984;48.312;9.244;2023-08-17T15:21:03;25.20;99.90
3940;DHT22;1984;48.312;9.244;2023-08-17T15:23:29;25.20;99.90
3940;DHT22;1984;48.312;9.244;2023-08-17T15:25:54;25.20;99.90
3940;DHT22;1984;48.312;9.244;2023-08-17T15:28:20;25.10;99.90
3940;DHT22;1984;48.312;9.244;2023-08-17T15:30:48;25.00;99.90
3940;DHT22;1984;48.312;9.244;2023-08-17T15:33:14;25.00;99.90
3940;DHT22;1984;48.312;9.244;2023-08-17T15:35:40;25.00;99.90
3940;DHT22;1984;48.312;9.244;2023-08-17T15:38:05;25.10;99.90
3940;DHT22;1984;48.312;9.244;2023-08-17T15:40:31;25.10;99.90
3940;DHT22;1984;48.312;9.244;2023-08-17T15:42:56;25.10;99.90
3940;DHT22;1984;48.312;9.244;2023-08-17T15:45:22;25.10;99.90
3940;DHT22;1984;48.312;9.244;2023-08-17T15:47:47;25.10;99.90
3940;DHT22;1984;48.312;9.244;2023-08-17T15:50:13;25.10;99.90
3940;DHT22;1984;48.312;9.244;2023-08-17T15:52:39;25.10;99.90
3940;DHT22;1984;48.312;9.244;2023-08-17T15:55:04;25.10;99.90
3940;DHT22;1984;48.312;9.244;2023-08-17T15:57:30;25.20;99.90
3940;DHT22;1984;48.312;9.244;2023-08-17T15:59:56;25.10;99.90
3940;DHT22;1984;48.312;9.244;2023-08-17T16:02:21;25.10;99.90